Time;durP1;ratioP1;P1;durP2;ratioP2;P2;SDS_P1;SDS_P2;PMS_P1;PMS_P2;Temp;Humidity;BMP_temperature;BMP_pressure;BME280_temperature;BME280_humidity;BME280_pressure;Samples;Min_cycle;Max_cycle;Signal;HPM_P1;HPM_P2
2023/03/10 00:02:07;;;;;;;0.70;0.70;;;;;;;;;;5004949;28;20534;-82
2023/03/10 00:04:33;;;;;;;0.70;0.70;;;;;;;;;;5005941;28;20181;-82
2023/03/10 00:06:59;;;;;;;0.67;0.67;;;;;;;;;;5006953;28;20240;-82
2023/03/10 00:09:25;;;;;;;0.67;0.67;;;;;;;;;;5005519;28;20276;-82
2023/03/10 00:11:51;;;;;;;0.60;0.60;;;;;;;;;;5006911;28;20176;-82
2023/03/10 00:14:17;;;;;;;0.60;0.60;;;;;;;;;;5005811;28;20249;-82
2023/03/10 00:16:43;;;;;;;0.50;0.50;;;;;;;;;;5002728;28;20197;-83
2023/03/10 00:19:09;;;;;;;0.60;0.60;;;;;;;;;;5012189;28;20225;-82
2023/03/10 00:21:35;;;;;;;0.70;0.70;;;;;;;;;;5014349;28;20180;-82
2023/03/10 00:24:01;;;;;;;0.60;0.60;;;;;;;;;;5013885;28;20257;-80
2023/03/10 00:26:28;;;;;;;0.70;0.70;;;;;;;;;;5009431;28;20184;-83
2023/03/10 00:28:54;;;;;;;0.70;0.70;;;;;;;;;;5016617;28;20173;-81
2023/03/10 00:31:22;;;;;;;0.53;0.53;;;;;;;;;;5017161;28;20185;-80
2023/03/10 00:33:49;;;;;;;0.60;0.60;;;;;;;;;;5016241;28;20610;-80
2023/03/10 00:36:17;;;;;;;0.60;0.60;;;;;;;;;;5016718;28;20268;-80
2023/03/10 00:38:43;;;;;;;0.70;0.70;;;;;;;;;;5003866;28;20220;-82
2023/03/10 00:41:20;;;;;;;0.80;0.80;;;;;;;;;;4999952;28;20193;-83
2023/03/10 00:43:46;;;;;;;0.67;0.67;;;;;;;;;;4999038;28;20692;-81
2023/03/10 00:46:12;;;;;;;0.60;0.60;;;;;;;;;;4998413;28;20189;-81
2023/03/10 00:48:38;;;;;;;0.70;0.70;;;;;;;;;;5000724;28;20236;-82
2023/03/10 00:51:05;;;;;;;0.80;0.80;;;;;;;;;;5000642;28;20187;-82
2023/03/10 00:53:31;;;;;;;0.70;0.70;;;;;;;;;;5001149;28;20224;-83
2023/03/10 00:55:57;;;;;;;0.70;0.70;;;;;;;;;;5001117;28;20596;-83
2023/03/10 00:58:23;;;;;;;0.67;0.67;;;;;;;;;;5001180;28;20208;-82
2023/03/10 01:00:49;;;;;;;0.63;0.63;;;;;;;;;;5001222;28;20185;-83
2023/03/10 01:03:15;;;;;;;0.60;0.60;;;;;;;;;;4999211;28;20189;-83
2023/03/10 01:05:41;;;;;;;0.70;0.70;;;;;;;;;;4999580;28;20665;-82
2023/03/10 01:08:07;;;;;;;0.70;0.70;;;;;;;;;;4999777;28;20188;-82
2023/03/10 01:10:33;;;;;;;0.77;0.77;;;;;;;;;;5000680;28;20189;-82
2023/03/10 01:12:59;;;;;;;0.70;0.70;;;;;;;;;;5000391;28;20729;-83
2023/03/10 01:15:25;;;;;;;0.60;0.60;;;;;;;;;;5000964;28;20250;-82
2023/03/10 01:17:51;;;;;;;0.70;0.70;;;;;;;;;;5003675;28;20181;-80
2023/03/10 01:20:17;;;;;;;0.60;0.60;;;;;;;;;;5007466;28;20825;-81
2023/03/10 01:22:44;;;;;;;0.60;0.60;;;;;;;;;;5005771;28;20197;-82
2023/03/10 01:25:13;;;;;;;0.73;0.73;;;;;;;;;;4999556;28;20265;-83
2023/03/10 01:27:40;;;;;;;0.80;0.80;;;;;;;;;;4999635;28;20185;-82
2023/03/10 01:30:06;;;;;;;0.67;0.67;;;;;;;;;;4999794;28;20195;-82
2023/03/10 01:32:32;;;;;;;0.70;0.70;;;;;;;;;;4999842;28;20204;-82
2023/03/10 01:34:58;;;;;;;0.73;0.73;;;;;;;;;;5000213;28;20181;-82
2023/03/10 01:37:24;;;;;;;0.60;0.60;;;;;;;;;;5001706;28;20181;-83
2023/03/10 01:39:50;;;;;;;0.70;0.70;;;;;;;;;;5011835;28;20220;-80
2023/03/10 01:42:16;;;;;;;0.70;0.70;;;;;;;;;;5017661;28;20196;-81
2023/03/10 01:44:42;;;;;;;0.70;0.70;;;;;;;;;;5017297;28;20165;-81
2023/03/10 01:47:08;;;;;;;0.70;0.70;;;;;;;;;;5003994;28;20660;-82
2023/03/10 01:49:35;;;;;;;0.70;0.70;;;;;;;;;;4997597;28;20197;-81
2023/03/10 01:52:04;;;;;;;0.90;0.90;;;;;;;;;;4997409;28;20207;-82
2023/03/10 01:54:34;;;;;;;0.70;0.70;;;;;;;;;;4997153;28;20664;-81
2023/03/10 01:57:00;;;;;;;0.87;0.87;;;;;;;;;;4998058;28;20672;-82
2023/03/10 01:59:27;;;;;;;0.70;0.70;;;;;;;;;;4993949;28;20281;-80
2023/03/10 02:01:53;;;;;;;0.70;0.70;;;;;;;;;;4994243;28;20716;-82
2023/03/10 02:04:35;;;;;;;0.60;0.60;;;;;;;;;;4994545;28;20575;-81
2023/03/10 02:07:03;;;;;;;0.80;0.80;;;;;;;;;;4996985;28;20258;-81
2023/03/10 02:09:29;;;;;;;0.60;0.60;;;;;;;;;;4997020;28;20180;-81
2023/03/10 02:11:57;;;;;;;0.70;0.70;;;;;;;;;;4996327;28;20510;-81
2023/03/10 02:14:23;;;;;;;0.57;0.57;;;;;;;;;;4996858;28;20208;-80
2023/03/10 02:16:49;;;;;;;0.80;0.80;;;;;;;;;;4996487;28;20181;-81
2023/03/10 02:19:21;;;;;;;0.80;0.80;;;;;;;;;;4997514;28;20319;-82
2023/03/10 02:22:00;;;;;;;0.80;0.80;;;;;;;;;;4997949;28;20184;-81
2023/03/10 02:24:45;;;;;;;0.70;0.70;;;;;;;;;;4996860;28;20180;-82
2023/03/10 02:27:14;;;;;;;0.60;0.60;;;;;;;;;;4997479;28;20185;-81
2023/03/10 02:29:43;;;;;;;0.70;0.70;;;;;;;;;;4997182;28;20181;-81
2023/03/10 02:32:09;;;;;;;0.70;0.70;;;;;;;;;;4997521;28;20603;-81
2023/03/10 02:34:35;;;;;;;0.70;0.70;;;;;;;;;;4998804;28;20181;-81
2023/03/10 02:37:01;;;;;;;0.67;0.67;;;;;;;;;;5002740;28;20240;-81
2023/03/10 02:39:27;;;;;;;0.70;0.70;;;;;;;;;;5001030;28;20213;-81
2023/03/10 02:41:53;;;;;;;0.67;0.67;;;;;;;;;;5003676;28;20173;-82
2023/03/10 02:44:21;;;;;;;0.60;0.60;;;;;;;;;;5003316;28;20265;-81
2023/03/10 02:46:47;;;;;;;0.70;0.70;;;;;;;;;;5009021;28;20177;-80
2023/03/10 02:49:13;;;;;;;0.63;0.63;;;;;;;;;;5006169;28;20203;-80
2023/03/10 02:51:41;;;;;;;0.70;0.70;;;;;;;;;;5007075;28;20233;-80
2023/03/10 02:54:08;;;;;;;0.73;0.73;;;;;;;;;;4997951;28;20205;-82
2023/03/10 02:56:34;;;;;;;0.80;0.80;;;;;;;;;;4995423;28;20548;-81
2023/03/10 02:59:00;;;;;;;0.70;0.70;;;;;;;;;;4995039;28;20243;-80
2023/03/10 03:01:28;;;;;;;0.60;0.60;;;;;;;;;;4995961;28;20176;-80
2023/03/10 03:03:54;;;;;;;0.70;0.70;;;;;;;;;;4995127;28;20248;-81
2023/03/10 03:06:20;;;;;;;0.70;0.70;;;;;;;;;;4995723;28;20177;-81
2023/03/10 03:08:46;;;;;;;0.80;0.80;;;;;;;;;;4996068;28;20789;-81
2023/03/10 03:11:12;;;;;;;0.70;0.70;;;;;;;;;;4996190;28;20196;-82
2023/03/10 03:13:38;;;;;;;0.70;0.70;;;;;;;;;;4995452;28;20228;-81
2023/03/10 03:16:05;;;;;;;0.70;0.70;;;;;;;;;;4995883;28;20276;-81
2023/03/10 03:18:31;;;;;;;0.70;0.70;;;;;;;;;;4996423;28;20205;-81
2023/03/10 03:20:58;;;;;;;0.80;0.80;;;;;;;;;;4995729;28;20184;-81
2023/03/10 03:23:24;;;;;;;0.70;0.70;;;;;;;;;;4994610;28;20212;-82
2023/03/10 03:25:50;;;;;;;0.77;0.77;;;;;;;;;;4995836;28;20184;-80
2023/03/10 03:28:16;;;;;;;0.70;0.70;;;;;;;;;;4996088;28;20189;-81
2023/03/10 03:30:43;;;;;;;0.70;0.70;;;;;;;;;;4996250;28;20177;-82
2023/03/10 03:33:09;;;;;;;0.80;0.80;;;;;;;;;;4995777;28;20193;-83
2023/03/10 03:35:36;;;;;;;0.70;0.70;;;;;;;;;;4996523;28;20527;-82
2023/03/10 03:38:03;;;;;;;0.60;0.60;;;;;;;;;;4996991;28;20185;-82
2023/03/10 03:40:32;;;;;;;0.80;0.80;;;;;;;;;;4996917;28;20692;-82
2023/03/10 03:42:58;;;;;;;0.80;0.80;;;;;;;;;;4996663;28;20204;-81
2023/03/10 03:45:28;;;;;;;0.60;0.60;;;;;;;;;;4997884;28;20181;-81
2023/03/10 03:47:54;;;;;;;0.70;0.70;;;;;;;;;;5001361;28;20178;-82
2023/03/10 03:50:21;;;;;;;0.70;0.70;;;;;;;;;;5002879;28;20204;-81
2023/03/10 03:52:47;;;;;;;0.70;0.70;;;;;;;;;;5018498;28;20192;-80
2023/03/10 03:55:15;;;;;;;0.60;0.60;;;;;;;;;;5020777;28;20169;-79
2023/03/10 03:57:41;;;;;;;0.60;0.60;;;;;;;;;;5020582;28;20173;-80
2023/03/10 04:00:08;;;;;;;0.60;0.60;;;;;;;;;;5020711;28;20220;-82
2023/03/10 04:02:35;;;;;;;0.77;0.77;;;;;;;;;;5020133;28;20185;-81
2023/03/10 04:05:02;;;;;;;0.80;0.80;;;;;;;;;;5016878;28;20185;-81
2023/03/10 04:07:28;;;;;;;0.70;0.70;;;;;;;;;;5020194;28;20177;-81
2023/03/10 04:09:53;;;;;;;0.70;0.70;;;;;;;;;;5017332;28;20641;-81
2023/03/10 04:12:19;;;;;;;0.70;0.70;;;;;;;;;;5017027;28;20173;-82
2023/03/10 04:14:45;;;;;;;0.70;0.70;;;;;;;;;;5018029;28;20177;-81
2023/03/10 04:17:11;;;;;;;0.70;0.70;;;;;;;;;;5005541;28;20187;-82
2023/03/10 04:19:37;;;;;;;0.60;0.60;;;;;;;;;;5002422;28;20223;-81
2023/03/10 04:22:03;;;;;;;0.60;0.60;;;;;;;;;;5001736;28;20173;-81
2023/03/10 04:24:29;;;;;;;0.70;0.70;;;;;;;;;;5000825;28;20691;-82
2023/03/10 04:26:55;;;;;;;0.80;0.80;;;;;;;;;;5000714;28;20280;-81
2023/03/10 04:29:26;;;;;;;0.70;0.70;;;;;;;;;;5002529;28;20200;-81
2023/03/10 04:31:52;;;;;;;0.70;0.70;;;;;;;;;;5002315;28;20184;-81
2023/03/10 04:34:18;;;;;;;0.70;0.70;;;;;;;;;;4999982;28;20204;-81
2023/03/10 04:36:44;;;;;;;0.80;0.80;;;;;;;;;;5000581;28;20266;-82
2023/03/10 04:39:10;;;;;;;0.80;0.80;;;;;;;;;;4999799;28;20209;-81
2023/03/10 04:44:04;;;;;;;0.70;0.70;;;;;;;;;;4982461;28;20213;-82
2023/03/10 04:46:30;;;;;;;0.80;0.80;;;;;;;;;;4983163;28;20182;-82
2023/03/10 04:48:56;;;;;;;0.80;0.80;;;;;;;;;;4982941;28;20555;-82
2023/03/10 04:51:23;;;;;;;0.70;0.70;;;;;;;;;;4981101;28;20273;-82
2023/03/10 04:53:49;;;;;;;0.60;0.60;;;;;;;;;;4980031;28;20670;-82
2023/03/10 04:56:15;;;;;;;0.70;0.70;;;;;;;;;;4981021;28;20182;-82
2023/03/10 04:58:41;;;;;;;0.70;0.70;;;;;;;;;;4980182;28;20212;-81
2023/03/10 05:01:12;;;;;;;0.70;0.70;;;;;;;;;;4979347;28;20178;-81
2023/03/10 05:03:38;;;;;;;0.73;0.73;;;;;;;;;;4979927;28;20209;-81
2023/03/10 05:06:04;;;;;;;0.60;0.60;;;;;;;;;;4979050;28;20185;-80
2023/03/10 05:08:30;;;;;;;0.60;0.60;;;;;;;;;;4979973;28;20242;-80
2023/03/10 05:10:56;;;;;;;0.83;0.83;;;;;;;;;;4979802;28;20178;-81
2023/03/10 05:13:22;;;;;;;0.70;0.70;;;;;;;;;;4979477;28;20245;-81
2023/03/10 05:15:48;;;;;;;0.60;0.60;;;;;;;;;;4979843;28;20178;-80
2023/03/10 05:18:14;;;;;;;0.60;0.60;;;;;;;;;;4980018;28;20216;-80
2023/03/10 05:20:40;;;;;;;0.60;0.60;;;;;;;;;;4982341;28;20533;-81
2023/03/10 05:23:06;;;;;;;0.60;0.60;;;;;;;;;;4985903;28;20197;-79
2023/03/10 05:25:32;;;;;;;0.60;0.60;;;;;;;;;;4987046;28;20209;-80
2023/03/10 05:27:58;;;;;;;0.63;0.63;;;;;;;;;;4985782;28;20178;-82
2023/03/10 05:30:24;;;;;;;0.70;0.70;;;;;;;;;;4983725;28;20181;-81
2023/03/10 05:32:50;;;;;;;0.60;0.60;;;;;;;;;;4981517;28;20316;-81
2023/03/10 05:35:16;;;;;;;0.70;0.70;;;;;;;;;;4982014;28;20174;-81
2023/03/10 05:37:43;;;;;;;0.70;0.70;;;;;;;;;;4983575;28;20178;-79
2023/03/10 05:40:13;;;;;;;0.73;0.73;;;;;;;;;;4986236;28;20217;-80
2023/03/10 05:42:39;;;;;;;0.80;0.80;;;;;;;;;;4984934;28;20213;-79
2023/03/10 05:45:05;;;;;;;0.70;0.70;;;;;;;;;;4985645;28;20196;-80
2023/03/10 05:47:32;;;;;;;0.80;0.80;;;;;;;;;;4987139;28;20170;-79
2023/03/10 05:49:58;;;;;;;0.70;0.70;;;;;;;;;;4988976;28;20209;-81
2023/03/10 05:52:24;;;;;;;0.70;0.70;;;;;;;;;;4999246;28;20186;-82
2023/03/10 05:54:50;;;;;;;0.70;0.70;;;;;;;;;;4999748;28;20185;-81
2023/03/10 05:57:16;;;;;;;0.60;0.60;;;;;;;;;;4999598;28;20162;-82
2023/03/10 05:59:43;;;;;;;0.70;0.70;;;;;;;;;;4999249;28;20213;-82
2023/03/10 06:02:09;;;;;;;0.60;0.60;;;;;;;;;;4998331;28;20166;-80
2023/03/10 06:04:35;;;;;;;0.70;0.70;;;;;;;;;;4974640;28;20208;-79
2023/03/10 06:07:01;;;;;;;0.60;0.60;;;;;;;;;;4974720;28;20182;-80
2023/03/10 06:09:29;;;;;;;0.80;0.80;;;;;;;;;;4974879;28;20192;-80
2023/03/10 06:11:55;;;;;;;0.70;0.70;;;;;;;;;;4971027;28;20192;-79
2023/03/10 06:14:21;;;;;;;0.70;0.70;;;;;;;;;;4970670;28;20201;-79
2023/03/10 06:16:50;;;;;;;0.80;0.80;;;;;;;;;;4974791;28;20229;-80
2023/03/10 06:19:19;;;;;;;0.80;0.80;;;;;;;;;;4975056;28;20312;-81
2023/03/10 06:21:45;;;;;;;0.60;0.60;;;;;;;;;;4976074;28;20265;-80
2023/03/10 06:24:11;;;;;;;0.70;0.70;;;;;;;;;;4974402;28;20213;-80
2023/03/10 06:26:38;;;;;;;0.60;0.60;;;;;;;;;;4975129;28;20185;-80
2023/03/10 06:29:04;;;;;;;0.70;0.70;;;;;;;;;;4978929;28;20209;-80
2023/03/10 06:31:30;;;;;;;0.80;0.80;;;;;;;;;;4977530;28;20194;-80
2023/03/10 06:33:57;;;;;;;0.70;0.70;;;;;;;;;;4972640;28;20209;-79
2023/03/10 06:36:25;;;;;;;0.70;0.70;;;;;;;;;;4975468;28;20205;-80
2023/03/10 06:38:51;;;;;;;0.80;0.80;;;;;;;;;;4976043;28;20284;-80
2023/03/10 06:41:17;;;;;;;0.63;0.63;;;;;;;;;;4976915;28;20568;-80
2023/03/10 06:43:43;;;;;;;0.80;0.80;;;;;;;;;;4976073;28;20237;-80
2023/03/10 06:46:10;;;;;;;0.80;0.80;;;;;;;;;;4976900;28;20189;-80
2023/03/10 06:48:37;;;;;;;0.80;0.80;;;;;;;;;;4975894;28;20181;-80
2023/03/10 06:51:15;;;;;;;0.70;0.70;;;;;;;;;;4976401;28;20180;-82
2023/03/10 06:53:41;;;;;;;0.60;0.60;;;;;;;;;;4976086;28;20228;-81
2023/03/10 06:56:12;;;;;;;0.80;0.80;;;;;;;;;;4977465;28;20201;-81
2023/03/10 06:58:38;;;;;;;0.60;0.60;;;;;;;;;;4976482;28;20209;-80
2023/03/10 07:01:04;;;;;;;0.70;0.70;;;;;;;;;;4977820;28;20707;-81
2023/03/10 07:03:30;;;;;;;0.80;0.80;;;;;;;;;;4976920;28;20194;-81
2023/03/10 07:05:59;;;;;;;0.70;0.70;;;;;;;;;;4978595;28;20240;-80
2023/03/10 07:08:26;;;;;;;0.60;0.60;;;;;;;;;;4979386;28;20190;-82
2023/03/10 07:10:52;;;;;;;0.60;0.60;;;;;;;;;;4977247;28;20194;-83
2023/03/10 07:13:18;;;;;;;0.70;0.70;;;;;;;;;;4978379;28;20285;-82
2023/03/10 07:15:44;;;;;;;0.60;0.60;;;;;;;;;;4984527;28;20182;-81
2023/03/10 07:18:11;;;;;;;0.60;0.60;;;;;;;;;;4980345;28;20205;-82
2023/03/10 07:20:39;;;;;;;0.60;0.60;;;;;;;;;;4978809;28;20217;-82
2023/03/10 07:23:05;;;;;;;0.70;0.70;;;;;;;;;;4978771;28;20204;-82
2023/03/10 07:25:34;;;;;;;0.70;0.70;;;;;;;;;;4979968;28;20236;-81
2023/03/10 07:28:00;;;;;;;0.70;0.70;;;;;;;;;;4981175;28;20479;-81
2023/03/10 07:30:26;;;;;;;0.60;0.60;;;;;;;;;;4980852;28;20588;-80
2023/03/10 07:32:52;;;;;;;0.60;0.60;;;;;;;;;;4980188;28;20209;-81
2023/03/10 07:35:18;;;;;;;0.70;0.70;;;;;;;;;;4983399;28;20649;-82
2023/03/10 07:37:44;;;;;;;0.73;0.73;;;;;;;;;;4985253;28;20181;-80
2023/03/10 07:40:10;;;;;;;0.60;0.60;;;;;;;;;;4984126;28;20232;-80
2023/03/10 07:42:36;;;;;;;0.60;0.60;;;;;;;;;;4983267;28;20214;-81
2023/03/10 07:45:02;;;;;;;0.60;0.60;;;;;;;;;;4981221;28;20209;-80
2023/03/10 07:47:28;;;;;;;0.60;0.60;;;;;;;;;;4980763;28;20190;-81
2023/03/10 07:49:54;;;;;;;0.60;0.60;;;;;;;;;;4979722;28;20657;-84
2023/03/10 07:52:20;;;;;;;0.50;0.50;;;;;;;;;;4980473;28;20173;-80
2023/03/10 07:54:46;;;;;;;0.60;0.60;;;;;;;;;;4979683;28;20220;-81
2023/03/10 07:57:12;;;;;;;0.60;0.60;;;;;;;;;;4978447;28;20258;-80
2023/03/10 07:59:39;;;;;;;0.57;0.57;;;;;;;;;;4980075;28;20218;-80
2023/03/10 08:02:05;;;;;;;0.60;0.60;;;;;;;;;;4980699;28;20641;-81
2023/03/10 08:04:31;;;;;;;0.60;0.60;;;;;;;;;;4978988;28;20238;-81
2023/03/10 08:07:00;;;;;;;0.70;0.70;;;;;;;;;;4980230;28;20798;-78
2023/03/10 08:09:27;;;;;;;0.60;0.60;;;;;;;;;;4980587;28;20611;-82
2023/03/10 08:11:53;;;;;;;0.60;0.60;;;;;;;;;;4980650;28;20202;-81
2023/03/10 08:14:22;;;;;;;0.60;0.60;;;;;;;;;;4979872;28;20205;-81
2023/03/10 08:16:48;;;;;;;0.60;0.60;;;;;;;;;;4980685;28;20177;-83
2023/03/10 08:19:14;;;;;;;0.60;0.60;;;;;;;;;;4979956;28;20216;-82
2023/03/10 08:21:40;;;;;;;0.60;0.60;;;;;;;;;;4980114;28;20174;-81
2023/03/10 08:24:06;;;;;;;0.60;0.60;;;;;;;;;;4979709;28;20344;-83
2023/03/10 08:26:32;;;;;;;0.80;0.80;;;;;;;;;;4979985;28;20212;-82
2023/03/10 08:28:58;;;;;;;0.60;0.60;;;;;;;;;;4980136;28;20224;-81
2023/03/10 08:31:24;;;;;;;0.67;0.67;;;;;;;;;;4980703;28;20656;-80
2023/03/10 08:33:54;;;;;;;0.60;0.60;;;;;;;;;;4979241;28;20200;-82
2023/03/10 08:36:21;;;;;;;0.77;0.77;;;;;;;;;;4978385;28;20248;-82
2023/03/10 08:38:48;;;;;;;0.70;0.70;;;;;;;;;;4976791;28;20694;-82
2023/03/10 08:41:15;;;;;;;0.70;0.70;;;;;;;;;;4979178;28;20178;-81
2023/03/10 08:43:41;;;;;;;0.77;0.77;;;;;;;;;;4978127;28;20700;-80
2023/03/10 08:46:07;;;;;;;0.60;0.60;;;;;;;;;;4977332;28;20289;-81
2023/03/10 08:48:34;;;;;;;0.70;0.70;;;;;;;;;;4978454;28;20192;-80
2023/03/10 08:51:00;;;;;;;0.70;0.70;;;;;;;;;;4977501;28;20174;-81
2023/03/10 08:53:26;;;;;;;0.77;0.77;;;;;;;;;;4977540;28;20216;-80
2023/03/10 08:55:52;;;;;;;0.70;0.70;;;;;;;;;;4978077;28;20205;-79
2023/03/10 08:58:18;;;;;;;0.70;0.70;;;;;;;;;;4978649;28;20663;-79
2023/03/10 09:00:44;;;;;;;0.77;0.77;;;;;;;;;;4978429;28;20253;-80
2023/03/10 09:03:10;;;;;;;0.80;0.80;;;;;;;;;;4979523;28;20233;-83
2023/03/10 09:05:37;;;;;;;0.80;0.80;;;;;;;;;;4978470;28;20583;-81
2023/03/10 09:08:03;;;;;;;0.70;0.70;;;;;;;;;;4977953;28;20178;-81
2023/03/10 09:10:29;;;;;;;0.77;0.77;;;;;;;;;;4977539;28;20210;-82
2023/03/10 09:12:55;;;;;;;0.77;0.77;;;;;;;;;;4977302;28;20221;-81
2023/03/10 09:15:22;;;;;;;0.70;0.70;;;;;;;;;;4977995;28;20181;-82
2023/03/10 09:17:48;;;;;;;0.70;0.70;;;;;;;;;;4977460;28;20178;-82
2023/03/10 09:20:14;;;;;;;0.60;0.60;;;;;;;;;;4978688;28;20213;-82
2023/03/10 09:22:40;;;;;;;0.60;0.60;;;;;;;;;;4978499;28;20218;-85
2023/03/10 09:25:07;;;;;;;0.70;0.70;;;;;;;;;;4977016;28;20186;-83
2023/03/10 09:27:33;;;;;;;0.60;0.60;;;;;;;;;;4977911;28;20170;-83
2023/03/10 09:29:59;;;;;;;0.60;0.60;;;;;;;;;;4975827;28;20192;-89
2023/03/10 09:32:25;;;;;;;0.60;0.60;;;;;;;;;;4996154;28;20190;-89
2023/03/10 09:34:51;;;;;;;0.60;0.60;;;;;;;;;;4996781;28;20212;-83
2023/03/10 09:37:17;;;;;;;0.60;0.60;;;;;;;;;;4990556;28;20531;-83
2023/03/10 09:39:43;;;;;;;0.57;0.57;;;;;;;;;;4992370;28;20205;-83
2023/03/10 09:42:18;;;;;;;0.53;0.53;;;;;;;;;;4999604;28;20228;-86
2023/03/10 09:45:03;;;;;;;0.60;0.60;;;;;;;;;;4999862;28;20209;-84
2023/03/10 09:47:52;;;;;;;0.50;0.50;;;;;;;;;;4999527;28;20170;-83
2023/03/10 09:50:34;;;;;;;0.50;0.50;;;;;;;;;;4970206;28;20193;-82
2023/03/10 09:53:19;;;;;;;0.60;0.60;;;;;;;;;;4973864;28;20210;-82
2023/03/10 09:55:45;;;;;;;0.60;0.60;;;;;;;;;;4974401;28;20174;-82
2023/03/10 09:58:13;;;;;;;0.70;0.70;;;;;;;;;;4975016;28;20176;-83
2023/03/10 10:00:40;;;;;;;0.53;0.53;;;;;;;;;;4974881;28;20237;-84
2023/03/10 10:03:23;;;;;;;0.53;0.53;;;;;;;;;;4975102;28;20650;-83
2023/03/10 10:05:51;;;;;;;0.70;0.70;;;;;;;;;;4973972;28;20236;-83
2023/03/10 10:08:25;;;;;;;0.60;0.60;;;;;;;;;;4974920;28;20595;-83
2023/03/10 10:10:56;;;;;;;0.70;0.70;;;;;;;;;;4967081;28;20547;-83
2023/03/10 10:13:24;;;;;;;0.60;0.60;;;;;;;;;;4976169;28;20244;-85
2023/03/10 10:15:58;;;;;;;0.80;0.80;;;;;;;;;;4976646;28;20626;-86
2023/03/10 10:18:30;;;;;;;0.60;0.60;;;;;;;;;;4976840;28;20193;-83
2023/03/10 10:21:01;;;;;;;0.53;0.53;;;;;;;;;;4976780;28;20182;-82
2023/03/10 10:23:42;;;;;;;0.70;0.70;;;;;;;;;;4976855;28;20681;-82
2023/03/10 10:26:10;;;;;;;0.80;0.80;;;;;;;;;;4977057;28;20241;-82
2023/03/10 10:28:40;;;;;;;0.70;0.70;;;;;;;;;;4977309;28;20253;-83
2023/03/10 10:31:18;;;;;;;0.50;0.50;;;;;;;;;;4975644;28;20181;-82
2023/03/10 10:34:01;;;;;;;0.70;0.70;;;;;;;;;;4975813;28;20256;-82
2023/03/10 10:36:29;;;;;;;0.63;0.63;;;;;;;;;;4975947;28;20201;-81
2023/03/10 10:38:55;;;;;;;0.60;0.60;;;;;;;;;;4976368;28;20201;-82
2023/03/10 10:41:28;;;;;;;0.70;0.70;;;;;;;;;;4977666;28;20624;-83
2023/03/10 10:43:59;;;;;;;0.70;0.70;;;;;;;;;;4977576;28;20240;-84
2023/03/10 10:46:27;;;;;;;0.67;0.67;;;;;;;;;;4976851;28;20712;-82
2023/03/10 10:49:04;;;;;;;0.70;0.70;;;;;;;;;;4975885;28;20182;-81
2023/03/10 10:51:32;;;;;;;0.70;0.70;;;;;;;;;;4971421;28;20177;-82
2023/03/10 10:54:00;;;;;;;0.60;0.60;;;;;;;;;;4975966;28;20209;-82
2023/03/10 10:56:27;;;;;;;0.60;0.60;;;;;;;;;;4976309;28;20174;-81
2023/03/10 10:59:04;;;;;;;0.73;0.73;;;;;;;;;;4976982;28;20240;-84
2023/03/10 11:02:06;;;;;;;0.60;0.60;;;;;;;;;;4977400;28;20185;-82
2023/03/10 11:04:42;;;;;;;0.57;0.57;;;;;;;;;;4916264;29;20183;-81
2023/03/10 11:07:16;;;;;;;0.70;0.70;;;;;;;;;;4967964;28;20193;-81
2023/03/10 11:09:42;;;;;;;0.60;0.60;;;;;;;;;;4974783;28;20174;-81
2023/03/10 11:12:21;;;;;;;0.70;0.70;;;;;;;;;;4975433;28;20214;-83
2023/03/10 11:15:00;;;;;;;0.60;0.60;;;;;;;;;;4977590;28;20185;-82
2023/03/10 11:17:30;;;;;;;0.70;0.70;;;;;;;;;;4977245;28;20186;-84
2023/03/10 11:20:03;;;;;;;0.70;0.70;;;;;;;;;;4976423;28;20220;-85
2023/03/10 11:22:31;;;;;;;0.70;0.70;;;;;;;;;;4976391;28;20205;-83
2023/03/10 11:24:57;;;;;;;0.70;0.70;;;;;;;;;;4977523;28;20186;-83
2023/03/10 11:27:31;;;;;;;0.70;0.70;;;;;;;;;;4978546;28;20229;-84
2023/03/10 11:30:03;;;;;;;0.63;0.63;;;;;;;;;;4977673;28;20584;-84
2023/03/10 11:32:35;;;;;;;0.70;0.70;;;;;;;;;;4976281;28;20260;-81
2023/03/10 11:35:06;;;;;;;0.70;0.70;;;;;;;;;;4978130;28;20188;-81
2023/03/10 11:37:40;;;;;;;0.80;0.80;;;;;;;;;;4980145;28;20641;-82
2023/03/10 11:40:27;;;;;;;0.50;0.50;;;;;;;;;;4978209;28;20589;-81
2023/03/10 11:43:16;;;;;;;0.70;0.70;;;;;;;;;;4977056;28;20627;-81
2023/03/10 11:45:53;;;;;;;0.60;0.60;;;;;;;;;;4976431;28;20622;-82
2023/03/10 11:48:22;;;;;;;0.60;0.60;;;;;;;;;;4976474;28;20232;-82
2023/03/10 11:50:53;;;;;;;0.60;0.60;;;;;;;;;;4977659;28;20206;-81
2023/03/10 11:53:29;;;;;;;0.73;0.73;;;;;;;;;;4976404;28;20280;-83
2023/03/10 11:55:56;;;;;;;0.70;0.70;;;;;;;;;;4976913;28;20185;-82
2023/03/10 11:58:32;;;;;;;0.60;0.60;;;;;;;;;;4977980;28;20182;-81
2023/03/10 12:00:59;;;;;;;0.60;0.60;;;;;;;;;;4978015;28;20193;-83
2023/03/10 12:03:28;;;;;;;0.60;0.60;;;;;;;;;;4977401;28;20288;-84
2023/03/10 12:05:56;;;;;;;0.50;0.50;;;;;;;;;;4977446;28;20197;-81
2023/03/10 12:08:24;;;;;;;0.70;0.70;;;;;;;;;;4976307;28;20236;-84
2023/03/10 12:10:50;;;;;;;0.70;0.70;;;;;;;;;;4975431;28;20178;-83
2023/03/10 12:13:23;;;;;;;0.60;0.60;;;;;;;;;;4979114;28;20549;-85
2023/03/10 12:15:51;;;;;;;0.70;0.70;;;;;;;;;;4978825;28;20525;-83
2023/03/10 12:18:17;;;;;;;0.63;0.63;;;;;;;;;;4978854;28;20181;-83
2023/03/10 12:20:43;;;;;;;0.60;0.60;;;;;;;;;;4978832;28;20308;-84
2023/03/10 12:23:09;;;;;;;0.63;0.63;;;;;;;;;;4977874;28;20244;-83
2023/03/10 12:25:37;;;;;;;0.50;0.50;;;;;;;;;;4978998;28;20178;-83
2023/03/10 12:28:15;;;;;;;0.60;0.60;;;;;;;;;;4981205;28;20170;-83
2023/03/10 12:30:45;;;;;;;0.60;0.60;;;;;;;;;;4979739;28;20625;-81
2023/03/10 12:33:29;;;;;;;0.70;0.70;;;;;;;;;;4979850;28;20202;-83
2023/03/10 12:36:02;;;;;;;0.70;0.70;;;;;;;;;;4974116;28;20178;-81
2023/03/10 12:38:36;;;;;;;0.60;0.60;;;;;;;;;;4978529;28;20256;-84
2023/03/10 12:41:02;;;;;;;0.60;0.60;;;;;;;;;;4978985;28;20184;-85
2023/03/10 12:43:37;;;;;;;0.60;0.60;;;;;;;;;;4979913;28;20237;-84
2023/03/10 12:46:06;;;;;;;0.70;0.70;;;;;;;;;;4980823;28;20189;-80
2023/03/10 12:48:33;;;;;;;0.60;0.60;;;;;;;;;;4980350;28;20177;-81
2023/03/10 12:51:06;;;;;;;0.60;0.60;;;;;;;;;;4982469;28;20214;-82
2023/03/10 12:53:37;;;;;;;0.70;0.70;;;;;;;;;;4980312;28;20194;-84
2023/03/10 12:56:29;;;;;;;0.70;0.70;;;;;;;;;;4981286;28;20186;-82
2023/03/10 12:58:58;;;;;;;0.60;0.60;;;;;;;;;;4978941;28;20222;-85
2023/03/10 13:01:27;;;;;;;0.70;0.70;;;;;;;;;;4982876;28;20189;-85
2023/03/10 13:03:54;;;;;;;0.63;0.63;;;;;;;;;;4990394;28;20661;-88
2023/03/10 13:06:29;;;;;;;0.77;0.77;;;;;;;;;;4995431;28;20216;-85
2023/03/10 13:08:55;;;;;;;0.60;0.60;;;;;;;;;;4992975;28;20241;-82
2023/03/10 13:11:29;;;;;;;0.70;0.70;;;;;;;;;;4992408;28;20257;-84
2023/03/10 13:14:03;;;;;;;0.70;0.70;;;;;;;;;;4991804;28;20257;-84
2023/03/10 13:16:29;;;;;;;0.60;0.60;;;;;;;;;;4993032;28;20189;-82
2023/03/10 13:18:55;;;;;;;0.70;0.70;;;;;;;;;;4992241;28;20217;-82
2023/03/10 13:21:29;;;;;;;0.70;0.70;;;;;;;;;;4996339;28;20166;-83
2023/03/10 13:23:55;;;;;;;0.60;0.60;;;;;;;;;;4994947;28;20201;-83
2023/03/10 13:26:23;;;;;;;0.70;0.70;;;;;;;;;;4996634;28;20252;-84
2023/03/10 13:29:02;;;;;;;0.60;0.60;;;;;;;;;;4993479;28;20174;-83
2023/03/10 13:31:32;;;;;;;0.80;0.80;;;;;;;;;;4990529;28;20253;-83
2023/03/10 13:34:10;;;;;;;0.63;0.63;;;;;;;;;;4978337;28;20198;-84
2023/03/10 13:36:37;;;;;;;0.60;0.60;;;;;;;;;;4978654;28;20265;-81
2023/03/10 13:39:09;;;;;;;0.60;0.60;;;;;;;;;;4977778;28;20300;-82
2023/03/10 13:41:39;;;;;;;0.70;0.70;;;;;;;;;;4977361;28;20185;-83
2023/03/10 13:44:05;;;;;;;0.70;0.70;;;;;;;;;;4976765;28;20304;-84
2023/03/10 13:46:32;;;;;;;0.70;0.70;;;;;;;;;;4977061;28;20194;-81
2023/03/10 13:49:05;;;;;;;0.67;0.67;;;;;;;;;;4976349;28;20210;-81
2023/03/10 13:51:32;;;;;;;0.70;0.70;;;;;;;;;;4976522;28;20194;-81
2023/03/10 13:54:18;;;;;;;0.70;0.70;;;;;;;;;;4975478;28;20202;-81
2023/03/10 13:56:45;;;;;;;0.67;0.67;;;;;;;;;;4976694;28;20182;-81
2023/03/10 13:59:13;;;;;;;0.77;0.77;;;;;;;;;;4976279;28;20213;-81
2023/03/10 14:01:43;;;;;;;0.70;0.70;;;;;;;;;;4974058;28;20182;-82
2023/03/10 14:04:14;;;;;;;0.63;0.63;;;;;;;;;;4973869;28;20194;-85
2023/03/10 14:06:40;;;;;;;0.63;0.63;;;;;;;;;;4975523;28;20174;-80
2023/03/10 14:09:13;;;;;;;0.67;0.67;;;;;;;;;;4973830;28;20738;-84
2023/03/10 14:11:40;;;;;;;0.77;0.77;;;;;;;;;;4975786;28;20744;-82
2023/03/10 14:14:07;;;;;;;0.70;0.70;;;;;;;;;;4975632;28;20233;-81
2023/03/10 14:16:56;;;;;;;0.60;0.60;;;;;;;;;;4975137;28;20190;-80
2023/03/10 14:19:39;;;;;;;0.73;0.73;;;;;;;;;;4983064;28;20293;-81
2023/03/10 14:22:39;;;;;;;0.60;0.60;;;;;;;;;;4978800;28;20181;-79
2023/03/10 14:25:10;;;;;;;0.70;0.70;;;;;;;;;;4944491;28;20647;-82
2023/03/10 14:27:38;;;;;;;0.63;0.63;;;;;;;;;;4964568;28;20178;-82
2023/03/10 14:30:14;;;;;;;0.70;0.70;;;;;;;;;;4975779;28;20188;-80
2023/03/10 14:32:40;;;;;;;0.70;0.70;;;;;;;;;;4971947;28;20234;-80
2023/03/10 14:35:10;;;;;;;0.60;0.60;;;;;;;;;;4987045;28;20319;-81
2023/03/10 14:37:36;;;;;;;0.70;0.70;;;;;;;;;;4974102;28;20178;-83
2023/03/10 14:40:03;;;;;;;0.70;0.70;;;;;;;;;;4978924;28;20220;-81
2023/03/10 14:42:29;;;;;;;0.60;0.60;;;;;;;;;;4974561;28;20280;-80
2023/03/10 14:44:59;;;;;;;0.80;0.80;;;;;;;;;;4975528;28;20185;-82
2023/03/10 14:47:25;;;;;;;0.70;0.70;;;;;;;;;;4976864;28;20184;-81
2023/03/10 14:49:51;;;;;;;0.70;0.70;;;;;;;;;;4978049;28;20570;-83
2023/03/10 14:52:17;;;;;;;0.60;0.60;;;;;;;;;;4976446;28;20177;-82
2023/03/10 14:54:43;;;;;;;0.80;0.80;;;;;;;;;;4976240;28;20192;-80